Time;durP1;ratioP1;P1;durP2;ratioP2;P2;SDS_P1;SDS_P2;PMS_P1;PMS_P2;Temp;Humidity;BMP_temperature;BMP_pressure;BME280_temperature;BME280_humidity;BME280_pressure;Samples;Min_cycle;Max_cycle;Signal;HPM_P1;HPM_P2
2024/01/08 00:02:25;;;;;;;10.20;6.90;;;-1.50;99.90;;;;;;5106697;27;20460;-74
2024/01/08 00:04:51;;;;;;;7.40;6.37;;;-1.40;99.90;;;;;;5115124;27;20115;-74
2024/01/08 00:07:17;;;;;;;8.73;6.53;;;-1.40;99.90;;;;;;5102476;27;20047;-74
2024/01/08 00:09:43;;;;;;;8.37;6.00;;;-1.40;99.90;;;;;;5121005;27;20497;-74
2024/01/08 00:12:08;;;;;;;8.43;6.47;;;-1.40;99.90;;;;;;5109412;27;20174;-74
2024/01/08 00:14:34;;;;;;;7.20;6.00;;;-1.50;99.90;;;;;;5108823;27;20058;-74
2024/01/08 00:17:00;;;;;;;8.50;6.97;;;-1.50;99.90;;;;;;5124235;27;20150;-74
2024/01/08 00:19:26;;;;;;;11.90;7.17;;;-1.60;99.90;;;;;;5122765;27;20131;-74
2024/01/08 00:21:52;;;;;;;10.63;6.90;;;-1.60;99.90;;;;;;5111910;27;20043;-74
2024/01/08 00:24:17;;;;;;;8.50;6.30;;;-1.60;99.90;;;;;;5121983;27;20050;-74
2024/01/08 00:26:43;;;;;;;8.93;6.80;;;-1.70;99.90;;;;;;5127065;27;20047;-75
2024/01/08 00:29:10;;;;;;;9.10;6.43;;;-1.70;99.90;;;;;;5123030;27;20034;-75
2024/01/08 00:31:35;;;;;;;11.23;6.53;;;-1.80;99.90;;;;;;5128633;27;20046;-74
2024/01/08 00:34:01;;;;;;;8.17;6.73;;;-1.80;99.90;;;;;;5130710;27;20050;-74
2024/01/08 00:36:27;;;;;;;9.47;7.03;;;-1.80;99.90;;;;;;5143837;27;20050;-75
2024/01/08 00:38:53;;;;;;;9.03;7.10;;;-1.80;99.90;;;;;;5127945;27;20459;-74
2024/01/08 00:41:19;;;;;;;8.87;7.40;;;-1.80;99.90;;;;;;5135009;27;20449;-74
2024/01/08 00:43:46;;;;;;;9.47;7.20;;;-1.80;99.90;;;;;;5131807;27;20217;-75
2024/01/08 00:46:12;;;;;;;11.37;6.83;;;-1.90;99.90;;;;;;5124959;27;20051;-74
2024/01/08 00:48:38;;;;;;;9.63;7.10;;;-1.90;99.90;;;;;;5125719;27;20137;-74
2024/01/08 00:51:04;;;;;;;10.90;7.20;;;-1.90;99.90;;;;;;5110667;27;22010;-74
2024/01/08 00:53:29;;;;;;;11.33;7.40;;;-1.90;99.90;;;;;;5119327;27;20046;-74
2024/01/08 00:55:58;;;;;;;8.93;6.67;;;-1.90;99.90;;;;;;5118451;27;20506;-74
2024/01/08 00:58:24;;;;;;;10.37;7.53;;;-1.90;99.90;;;;;;5114931;27;20481;-75
2024/01/08 01:00:50;;;;;;;9.93;7.27;;;-1.90;99.90;;;;;;5119215;27;20494;-73
2024/01/08 01:03:16;;;;;;;9.13;7.37;;;-2.00;99.90;;;;;;5125041;27;20077;-74
2024/01/08 01:05:41;;;;;;;9.70;7.00;;;-2.00;99.90;;;;;;5107961;27;20051;-73
2024/01/08 01:08:07;;;;;;;11.37;7.83;;;-2.00;99.90;;;;;;5136906;27;20043;-73
2024/01/08 01:10:33;;;;;;;10.13;7.70;;;-2.00;99.90;;;;;;5128729;27;20061;-73
2024/01/08 01:12:59;;;;;;;10.77;7.23;;;-2.10;99.90;;;;;;5124805;27;20118;-73
2024/01/08 01:15:24;;;;;;;10.60;7.67;;;-2.10;99.90;;;;;;5128623;27;20377;-73
2024/01/08 01:17:50;;;;;;;9.90;8.03;;;-2.10;99.90;;;;;;5129155;27;20046;-73
2024/01/08 01:20:16;;;;;;;10.17;8.03;;;-2.10;99.90;;;;;;5127824;27;20054;-73
2024/01/08 01:22:42;;;;;;;10.37;8.23;;;-2.10;99.90;;;;;;5119705;27;20042;-72
2024/01/08 01:25:08;;;;;;;10.63;8.30;;;-2.10;99.90;;;;;;5129315;27;20388;-72
2024/01/08 01:27:33;;;;;;;10.07;8.53;;;-2.10;99.90;;;;;;5125471;27;20200;-73
2024/01/08 01:29:59;;;;;;;10.47;8.40;;;-2.00;99.90;;;;;;5129504;27;20103;-72
2024/01/08 01:32:25;;;;;;;11.07;8.37;;;-2.00;99.90;;;;;;5110085;27;20035;-73
2024/01/08 01:34:51;;;;;;;11.57;8.30;;;-1.90;99.90;;;;;;5128639;27;20043;-73
2024/01/08 01:37:17;;;;;;;11.87;8.63;;;-1.90;99.90;;;;;;5122746;27;20038;-73
2024/01/08 01:39:42;;;;;;;10.10;8.40;;;-1.90;99.90;;;;;;5128836;27;20122;-74
2024/01/08 01:42:09;;;;;;;12.90;9.43;;;-1.80;99.90;;;;;;5111306;27;20050;-74
2024/01/08 01:44:35;;;;;;;11.93;8.67;;;-1.90;99.90;;;;;;5129946;27;20043;-74
2024/01/08 01:47:00;;;;;;;12.20;8.07;;;-1.90;99.90;;;;;;5117864;27;20050;-75
2024/01/08 01:49:26;;;;;;;11.20;8.27;;;-1.80;99.90;;;;;;5127696;27;20038;-75
2024/01/08 01:51:54;;;;;;;10.70;8.43;;;-1.80;99.90;;;;;;5120846;27;20035;-75
2024/01/08 01:54:23;;;;;;;12.67;9.47;;;-1.80;99.90;;;;;;5127374;27;20121;-75
2024/01/08 01:56:54;;;;;;;12.47;9.13;;;-1.80;99.90;;;;;;5112307;27;20043;-75
2024/01/08 01:59:20;;;;;;;12.87;8.47;;;-1.80;99.90;;;;;;5130373;27;20481;-75
2024/01/08 02:01:46;;;;;;;9.47;8.47;;;-1.70;99.90;;;;;;5126193;27;20541;-75
2024/01/08 02:04:17;;;;;;;11.17;9.20;;;-1.70;99.90;;;;;;5121126;27;20039;-74
2024/01/08 02:06:44;;;;;;;11.95;8.95;;;-1.70;99.90;;;;;;5140038;27;20057;-75
2024/01/08 02:09:13;;;;;;;12.83;9.47;;;-1.70;99.90;;;;;;5101102;27;20161;-75
2024/01/08 02:11:39;;;;;;;11.20;9.27;;;-1.60;99.90;;;;;;5120085;27;20043;-75
2024/01/08 02:14:05;;;;;;;10.23;9.10;;;-1.60;99.90;;;;;;5120665;27;20046;-75
2024/01/08 02:16:31;;;;;;;10.83;9.27;;;-1.60;99.90;;;;;;5108993;27;20062;-75
2024/01/08 02:18:57;;;;;;;11.10;8.97;;;-1.60;99.90;;;;;;5122755;27;20419;-74
2024/01/08 02:21:22;;;;;;;12.67;9.13;;;-1.60;99.90;;;;;;5108899;27;20043;-74
2024/01/08 02:23:49;;;;;;;11.73;9.20;;;-1.50;99.90;;;;;;5118499;27;20100;-75
2024/01/08 02:26:15;;;;;;;11.77;9.90;;;-1.40;99.90;;;;;;5141047;27;20035;-74
2024/01/08 02:28:41;;;;;;;11.43;9.83;;;-1.50;99.90;;;;;;5116518;27;20038;-74
2024/01/08 02:31:07;;;;;;;12.83;10.10;;;-1.40;99.90;;;;;;5097850;27;20497;-75
2024/01/08 02:33:33;;;;;;;11.47;9.27;;;-1.40;99.90;;;;;;5143703;27;20046;-74
2024/01/08 02:36:00;;;;;;;13.27;10.00;;;-1.40;99.90;;;;;;5119833;27;20488;-74
2024/01/08 02:38:26;;;;;;;12.30;9.73;;;-1.40;99.90;;;;;;5130613;27;20046;-73
2024/01/08 02:40:52;;;;;;;11.90;9.70;;;-1.30;99.90;;;;;;5133158;27;20131;-74
2024/01/08 02:43:17;;;;;;;12.50;10.50;;;-1.40;99.90;;;;;;5116382;27;20047;-73
2024/01/08 02:45:43;;;;;;;13.60;10.03;;;-1.30;99.90;;;;;;5131442;27;20039;-73
2024/01/08 02:48:09;;;;;;;12.67;10.50;;;-1.30;99.90;;;;;;5117808;27;20551;-73
2024/01/08 02:50:38;;;;;;;12.00;9.87;;;-1.30;99.90;;;;;;5129926;27;20134;-74
2024/01/08 02:53:04;;;;;;;13.20;10.60;;;-1.20;99.90;;;;;;5130022;27;20065;-73
2024/01/08 02:55:29;;;;;;;11.87;10.57;;;-1.20;99.90;;;;;;5124541;27;20086;-74
2024/01/08 02:58:02;;;;;;;13.10;11.17;;;-1.20;99.90;;;;;;5132240;27;20046;-73
2024/01/08 03:00:28;;;;;;;12.77;10.40;;;-1.10;99.90;;;;;;5124310;27;20043;-73
2024/01/08 03:02:54;;;;;;;12.17;10.47;;;-1.10;99.90;;;;;;5125234;27;20501;-74
2024/01/08 03:05:19;;;;;;;12.43;11.13;;;-1.10;99.90;;;;;;5121134;27;20038;-74
2024/01/08 03:07:45;;;;;;;14.20;10.50;;;-1.10;99.90;;;;;;5127483;27;20070;-73
2024/01/08 03:10:11;;;;;;;13.67;11.10;;;-1.00;99.90;;;;;;5132295;27;20051;-73
2024/01/08 03:12:37;;;;;;;14.77;12.03;;;-1.00;99.90;;;;;;5123546;27;20050;-75
2024/01/08 03:15:03;;;;;;;14.80;11.80;;;-1.00;99.90;;;;;;5130028;27;20119;-75
2024/01/08 03:17:29;;;;;;;15.23;11.63;;;-1.00;99.90;;;;;;5108360;27;20079;-75
2024/01/08 03:19:54;;;;;;;11.90;10.53;;;-1.00;99.90;;;;;;5114121;27;20073;-75
2024/01/08 03:22:23;;;;;;;15.00;12.00;;;-0.90;99.90;;;;;;5129779;27;20845;-75
2024/01/08 03:24:48;;;;;;;12.63;11.23;;;-0.90;99.90;;;;;;5127781;27;20030;-75
2024/01/08 03:27:14;;;;;;;16.70;11.20;;;-0.90;99.90;;;;;;5145941;27;20094;-75
2024/01/08 03:29:40;;;;;;;13.67;11.57;;;-0.90;99.90;;;;;;5127204;27;20409;-74
2024/01/08 03:32:06;;;;;;;12.73;11.40;;;-0.90;99.90;;;;;;5123164;27;20117;-75
2024/01/08 03:34:32;;;;;;;12.93;10.73;;;-0.90;99.90;;;;;;5127437;27;20037;-73
2024/01/08 03:36:58;;;;;;;13.63;10.90;;;-0.90;99.90;;;;;;5129196;27;20411;-73
2024/01/08 03:39:25;;;;;;;13.70;10.60;;;-0.80;99.90;;;;;;5135806;27;20038;-74
2024/01/08 03:41:53;;;;;;;14.25;10.65;;;-0.80;99.90;;;;;;5110523;27;20042;-74
2024/01/08 03:44:19;;;;;;;14.93;10.20;;;-0.70;99.90;;;;;;5134760;27;20377;-73
2024/01/08 03:46:47;;;;;;;11.50;9.50;;;-0.80;99.90;;;;;;5118826;27;20042;-74
2024/01/08 03:49:14;;;;;;;10.23;9.03;;;-0.70;99.90;;;;;;5133175;27;20059;-74
2024/01/08 03:51:40;;;;;;;10.63;9.13;;;-0.70;99.90;;;;;;5127145;27;20050;-74
2024/01/08 03:54:05;;;;;;;12.40;9.17;;;-0.70;99.90;;;;;;5113157;27;20047;-74
2024/01/08 03:56:31;;;;;;;10.77;9.00;;;-0.80;99.90;;;;;;5111326;27;20041;-74
2024/01/08 03:58:57;;;;;;;10.53;8.40;;;-0.70;99.90;;;;;;5123802;27;20035;-74
2024/01/08 04:01:23;;;;;;;11.00;8.20;;;-0.70;99.90;;;;;;5115010;27;20106;-74
2024/01/08 04:03:49;;;;;;;9.57;7.67;;;-0.70;99.90;;;;;;5099166;27;20125;-74
2024/01/08 04:06:16;;;;;;;9.73;7.73;;;-0.70;99.90;;;;;;5141417;27;20121;-73
2024/01/08 04:08:42;;;;;;;8.77;7.33;;;-0.70;99.90;;;;;;5122983;27;20066;-74
2024/01/08 04:11:08;;;;;;;9.70;8.00;;;-0.70;99.90;;;;;;5107119;27;20066;-74
2024/01/08 04:13:36;;;;;;;9.63;7.90;;;-0.70;99.90;;;;;;5126029;27;20386;-74
2024/01/08 04:16:02;;;;;;;9.37;7.63;;;-0.80;99.90;;;;;;5099365;27;20063;-74
2024/01/08 04:18:30;;;;;;;9.33;8.23;;;-0.80;99.90;;;;;;5105803;27;20046;-74
2024/01/08 04:20:56;;;;;;;10.63;8.50;;;-0.80;99.90;;;;;;5111245;27;20695;-74
2024/01/08 04:23:22;;;;;;;9.40;7.80;;;-0.80;99.90;;;;;;5121524;27;20035;-74
2024/01/08 04:25:48;;;;;;;11.27;9.30;;;-0.80;99.90;;;;;;5128343;27;20038;-74
2024/01/08 04:28:13;;;;;;;10.17;8.90;;;-0.80;99.90;;;;;;5109950;27;20519;-74
2024/01/08 04:30:39;;;;;;;10.43;8.50;;;-0.90;99.90;;;;;;5119489;27;20114;-74
2024/01/08 04:33:05;;;;;;;12.63;8.83;;;-0.90;99.90;;;;;;5116305;27;20050;-74
2024/01/08 04:35:33;;;;;;;10.97;8.90;;;-0.90;99.90;;;;;;5132751;27;20053;-74
2024/01/08 04:37:59;;;;;;;10.53;8.43;;;-0.90;99.90;;;;;;5119611;27;20035;-74
2024/01/08 04:40:25;;;;;;;11.43;8.70;;;-0.90;99.90;;;;;;5113125;27;20110;-74
2024/01/08 04:42:51;;;;;;;11.90;9.00;;;-0.90;99.90;;;;;;5127038;27;20039;-74
2024/01/08 04:45:17;;;;;;;11.80;8.53;;;-1.00;99.90;;;;;;5128367;27;20043;-74
2024/01/08 04:47:42;;;;;;;9.63;8.47;;;-0.90;99.90;;;;;;5113286;27;20057;-74
2024/01/08 04:50:08;;;;;;;12.13;9.10;;;-1.00;99.90;;;;;;5129544;27;20458;-74
2024/01/08 04:52:34;;;;;;;11.27;8.63;;;-1.00;99.90;;;;;;5118071;27;20039;-74
2024/01/08 04:55:00;;;;;;;10.80;8.87;;;-1.00;99.90;;;;;;5120549;27;20124;-74
2024/01/08 04:57:26;;;;;;;11.10;8.50;;;-1.00;99.90;;;;;;5115750;27;20151;-74
2024/01/08 04:59:52;;;;;;;10.70;8.10;;;-1.00;99.90;;;;;;5124087;27;20705;-74
2024/01/08 05:02:18;;;;;;;8.90;7.50;;;-1.00;99.90;;;;;;5122505;27;20039;-74
2024/01/08 05:04:44;;;;;;;8.90;7.57;;;-1.10;99.90;;;;;;5119164;27;20540;-74
2024/01/08 05:07:12;;;;;;;9.57;7.57;;;-1.10;99.90;;;;;;5122996;27;20039;-74
2024/01/08 05:09:41;;;;;;;8.50;7.17;;;-1.10;99.90;;;;;;5121512;27;20055;-74
2024/01/08 05:12:07;;;;;;;10.20;7.57;;;-1.10;99.90;;;;;;5109786;27;20039;-74
2024/01/08 05:14:33;;;;;;;8.30;6.80;;;-1.10;99.90;;;;;;5113381;27;20112;-74
2024/01/08 05:16:58;;;;;;;7.40;5.93;;;-1.10;99.90;;;;;;5128127;27;20378;-73
2024/01/08 05:19:24;;;;;;;9.57;5.70;;;-1.10;99.90;;;;;;5117114;27;20035;-74
2024/01/08 05:21:53;;;;;;;7.37;5.40;;;-1.20;99.90;;;;;;5123030;27;20608;-74
2024/01/08 05:24:18;;;;;;;8.07;5.77;;;-1.20;99.90;;;;;;5128706;27;20084;-74
2024/01/08 05:26:44;;;;;;;7.67;5.50;;;-1.30;99.90;;;;;;5134596;27;20131;-74
2024/01/08 05:29:10;;;;;;;7.67;5.17;;;-1.30;99.90;;;;;;5137360;27;20395;-74
2024/01/08 05:31:36;;;;;;;6.60;4.50;;;-1.30;99.90;;;;;;5142188;27;20046;-74
2024/01/08 05:34:01;;;;;;;7.50;4.70;;;-1.30;99.90;;;;;;5114569;27;20034;-74
2024/01/08 05:36:27;;;;;;;6.70;4.20;;;-1.30;99.90;;;;;;5133562;27;20042;-74
2024/01/08 05:38:53;;;;;;;6.13;4.93;;;-1.30;99.90;;;;;;5133034;27;20091;-74
2024/01/08 05:41:20;;;;;;;6.53;4.90;;;-1.30;99.90;;;;;;5129258;27;20046;-74
2024/01/08 05:43:46;;;;;;;6.83;4.83;;;-1.30;99.90;;;;;;5113560;27;20512;-74
2024/01/08 05:46:12;;;;;;;7.33;4.97;;;-1.30;99.90;;;;;;5138777;27;20046;-74
2024/01/08 05:48:38;;;;;;;6.20;5.30;;;-1.30;99.90;;;;;;5136738;27;20134;-74
2024/01/08 05:51:04;;;;;;;7.00;5.07;;;-1.20;99.90;;;;;;5130043;27;20553;-74
2024/01/08 05:53:33;;;;;;;7.27;5.53;;;-1.20;99.90;;;;;;5146544;27;20038;-74
2024/01/08 05:55:59;;;;;;;6.93;5.10;;;-1.30;99.90;;;;;;5134062;27;20381;-74
2024/01/08 05:58:28;;;;;;;9.00;6.30;;;-1.30;99.90;;;;;;5132567;27;20054;-74
2024/01/08 06:00:54;;;;;;;7.37;6.13;;;-1.30;99.90;;;;;;5143972;27;20053;-73
2024/01/08 06:03:24;;;;;;;7.63;6.30;;;-1.30;99.90;;;;;;5140845;27;20042;-74
2024/01/08 06:05:50;;;;;;;9.02;6.38;;;-1.30;99.90;;;;;;5121904;27;20038;-74
2024/01/08 06:08:16;;;;;;;8.40;6.90;;;-1.30;99.90;;;;;;5122408;27;20106;-74
2024/01/08 06:10:42;;;;;;;9.70;7.47;;;-1.30;99.90;;;;;;5114106;27;20061;-74
2024/01/08 06:13:10;;;;;;;9.47;7.57;;;-1.30;99.90;;;;;;5133165;27;20061;-74
2024/01/08 06:15:37;;;;;;;10.40;7.63;;;-1.30;99.90;;;;;;5108449;27;20389;-75
2024/01/08 06:18:04;;;;;;;9.63;7.80;;;-1.40;99.90;;;;;;5116355;27;20059;-75
2024/01/08 06:20:30;;;;;;;12.53;7.90;;;-1.30;99.90;;;;;;5109149;27;20138;-75
2024/01/08 06:22:56;;;;;;;10.40;8.00;;;-1.40;99.90;;;;;;5123711;27;20047;-75
2024/01/08 06:25:22;;;;;;;8.67;7.43;;;-1.40;99.90;;;;;;5138650;27;20050;-75
2024/01/08 06:27:47;;;;;;;10.30;7.87;;;-1.40;99.90;;;;;;5117333;27;20046;-75
2024/01/08 06:30:13;;;;;;;10.50;7.83;;;-1.40;99.90;;;;;;5112394;27;20048;-74
2024/01/08 06:32:39;;;;;;;11.77;8.40;;;-1.30;99.90;;;;;;5121334;27;20038;-74
2024/01/08 06:35:05;;;;;;;11.87;8.50;;;-1.30;99.90;;;;;;5128936;27;20488;-73
2024/01/08 06:37:31;;;;;;;12.53;7.63;;;-1.30;99.90;;;;;;5113666;27;20055;-74
2024/01/08 06:39:57;;;;;;;10.20;7.53;;;-1.30;99.90;;;;;;5131709;27;20049;-74
2024/01/08 06:42:23;;;;;;;10.70;7.83;;;-1.30;99.90;;;;;;5122700;27;20067;-74
2024/01/08 06:44:49;;;;;;;9.53;7.23;;;-1.30;99.90;;;;;;5132380;27;20045;-74
2024/01/08 06:47:15;;;;;;;10.50;7.70;;;-1.30;99.90;;;;;;5122090;27;20473;-74
2024/01/08 06:49:41;;;;;;;12.17;8.47;;;-1.20;99.90;;;;;;5121023;27;21530;-74
2024/01/08 06:52:07;;;;;;;11.00;7.67;;;-1.20;99.90;;;;;;5111265;27;20370;-74
2024/01/08 06:54:32;;;;;;;11.27;7.60;;;-1.20;99.90;;;;;;5117723;27;20470;-74
2024/01/08 06:56:58;;;;;;;12.03;8.37;;;-1.20;99.90;;;;;;5133410;27;20046;-74
2024/01/08 06:59:24;;;;;;;11.63;7.67;;;-1.20;99.90;;;;;;5128058;27;20069;-74
2024/01/08 07:01:51;;;;;;;12.40;8.03;;;-1.20;99.90;;;;;;5122113;27;20074;-74
2024/01/08 07:04:17;;;;;;;11.97;8.03;;;-1.20;99.90;;;;;;5121804;27;20541;-74
2024/01/08 07:06:44;;;;;;;12.70;8.13;;;-1.20;99.90;;;;;;5126297;27;20043;-74
2024/01/08 07:09:10;;;;;;;11.20;7.77;;;-1.20;99.90;;;;;;5113582;27;20481;-74
2024/01/08 07:11:36;;;;;;;12.70;7.70;;;-1.20;99.90;;;;;;5121066;27;20104;-74
2024/01/08 07:14:04;;;;;;;11.13;7.73;;;-1.20;99.90;;;;;;5130222;27;20049;-74
2024/01/08 07:16:30;;;;;;;11.43;7.90;;;-1.10;99.90;;;;;;5119684;27;20050;-74
2024/01/08 07:18:56;;;;;;;11.10;7.60;;;-1.10;99.90;;;;;;5125280;27;20031;-75
2024/01/08 07:21:22;;;;;;;10.50;7.20;;;-1.10;99.90;;;;;;5123814;27;20563;-75
2024/01/08 07:23:49;;;;;;;11.80;8.13;;;-1.10;99.90;;;;;;5123473;27;20039;-75
2024/01/08 07:26:16;;;;;;;9.73;7.40;;;-1.10;99.90;;;;;;5130772;27;20042;-75
2024/01/08 07:28:46;;;;;;;9.97;7.80;;;-1.10;99.90;;;;;;5133835;27;20035;-75
2024/01/08 07:31:12;;;;;;;9.80;7.20;;;-1.10;99.90;;;;;;5127149;27;20067;-74
2024/01/08 07:33:39;;;;;;;9.63;7.03;;;-1.00;99.90;;;;;;5131730;27;20075;-70
2024/01/08 07:36:06;;;;;;;10.40;7.27;;;-1.00;99.90;;;;;;5122540;27;20047;-71
2024/01/08 07:38:32;;;;;;;10.43;7.30;;;-1.00;99.90;;;;;;5135904;27;20392;-70
2024/01/08 07:40:58;;;;;;;9.03;6.60;;;-1.00;99.90;;;;;;5126889;27;20043;-70
2024/01/08 07:43:24;;;;;;;9.93;7.17;;;-1.00;99.90;;;;;;5116870;27;20083;-70
2024/01/08 07:45:51;;;;;;;9.90;6.83;;;-1.00;99.90;;;;;;5125297;27;20419;-70
2024/01/08 07:48:16;;;;;;;9.67;6.47;;;-1.00;99.90;;;;;;5122597;27;20054;-70
2024/01/08 07:50:42;;;;;;;8.67;6.37;;;-0.90;99.90;;;;;;5113892;27;20509;-70
2024/01/08 07:53:08;;;;;;;9.17;6.63;;;-0.90;99.90;;;;;;5126073;27;20035;-70
2024/01/08 07:55:34;;;;;;;10.13;7.03;;;-0.90;99.90;;;;;;5119654;27;20054;-70
2024/01/08 07:57:59;;;;;;;10.23;6.87;;;-0.90;99.90;;;;;;5101011;27;20493;-70
2024/01/08 08:00:26;;;;;;;9.07;6.77;;;-0.90;99.90;;;;;;5118901;27;20050;-70
2024/01/08 08:02:52;;;;;;;10.43;6.83;;;-0.90;99.90;;;;;;5102146;27;20154;-70
2024/01/08 08:05:18;;;;;;;8.60;6.73;;;-0.90;99.90;;;;;;5112878;27;20061;-71
2024/01/08 08:07:44;;;;;;;9.67;6.83;;;-0.80;99.90;;;;;;5131091;27;20822;-70
2024/01/08 08:10:10;;;;;;;8.73;5.87;;;-0.80;99.90;;;;;;5134308;27;20042;-71
2024/01/08 08:12:35;;;;;;;11.10;6.67;;;-0.80;99.90;;;;;;5127011;27;20034;-70
2024/01/08 08:15:01;;;;;;;9.07;6.57;;;-0.80;99.90;;;;;;5127350;27;20060;-71
2024/01/08 08:17:27;;;;;;;10.07;6.27;;;-0.80;99.90;;;;;;5128808;27;20049;-70
2024/01/08 08:19:53;;;;;;;8.87;6.27;;;-0.80;99.90;;;;;;5101716;27;20513;-70
2024/01/08 08:22:19;;;;;;;9.83;6.17;;;-0.80;99.90;;;;;;5127840;27;20171;-70
2024/01/08 08:24:47;;;;;;;11.53;7.13;;;-0.70;99.90;;;;;;5119464;27;20047;-71
2024/01/08 08:27:12;;;;;;;9.13;6.77;;;-0.70;99.90;;;;;;5122246;27;20053;-71
2024/01/08 08:29:43;;;;;;;9.07;6.23;;;-0.70;99.90;;;;;;5112268;27;20035;-71
2024/01/08 08:32:09;;;;;;;8.68;6.50;;;-0.70;99.90;;;;;;5123004;27;20132;-71
2024/01/08 08:34:36;;;;;;;8.73;6.30;;;-0.70;99.90;;;;;;5096139;27;20573;-70
2024/01/08 08:37:02;;;;;;;9.70;6.70;;;-0.70;99.90;;;;;;5115762;27;20160;-71
2024/01/08 08:39:28;;;;;;;10.07;7.07;;;-0.70;99.90;;;;;;5111829;27;20497;-70
2024/01/08 08:41:57;;;;;;;9.60;7.17;;;-0.70;99.90;;;;;;5129284;27;20050;-70
2024/01/08 08:44:23;;;;;;;9.87;6.83;;;-0.60;99.90;;;;;;5113250;27;20054;-70
2024/01/08 08:46:49;;;;;;;11.57;7.03;;;-0.60;99.90;;;;;;5113560;27;20042;-70
2024/01/08 08:49:16;;;;;;;14.17;7.10;;;-0.60;99.90;;;;;;5127292;27;20050;-71
2024/01/08 08:51:43;;;;;;;11.10;6.70;;;-0.60;99.90;;;;;;5136404;27;20050;-71
2024/01/08 08:54:09;;;;;;;10.97;6.67;;;-0.60;99.90;;;;;;5121394;27;20135;-70
2024/01/08 08:56:35;;;;;;;9.00;6.80;;;-0.60;99.90;;;;;;5130641;27;20084;-71
2024/01/08 08:59:02;;;;;;;9.37;5.93;;;-0.60;99.90;;;;;;5130870;27;20113;-71
2024/01/08 09:01:28;;;;;;;7.53;5.97;;;-0.60;99.90;;;;;;5122736;27;20623;-71
2024/01/08 09:03:54;;;;;;;9.60;6.63;;;-0.60;99.90;;;;;;5138771;27;20520;-71
2024/01/08 09:06:23;;;;;;;8.73;6.33;;;-0.60;99.90;;;;;;5140742;27;20046;-71
2024/01/08 09:08:49;;;;;;;10.03;6.40;;;-0.50;99.90;;;;;;5114070;27;20135;-71
2024/01/08 09:11:15;;;;;;;8.67;6.30;;;-0.50;99.90;;;;;;5129060;27;20096;-71
2024/01/08 09:13:42;;;;;;;10.03;6.40;;;-0.40;99.90;;;;;;5149818;27;20039;-71
2024/01/08 09:16:12;;;;;;;9.40;5.83;;;-0.40;99.90;;;;;;5134047;27;20067;-71
2024/01/08 09:18:38;;;;;;;8.95;5.55;;;-0.40;99.90;;;;;;5113575;27;20051;-70
2024/01/08 09:21:10;;;;;;;9.10;6.13;;;-0.40;99.90;;;;;;5113045;27;20035;-71
2024/01/08 09:23:36;;;;;;;8.40;5.93;;;-0.40;99.90;;;;;;5129768;27;20394;-71
2024/01/08 09:26:04;;;;;;;10.33;6.00;;;-0.40;99.90;;;;;;5136183;27;20034;-70
2024/01/08 09:28:30;;;;;;;9.27;5.47;;;-0.30;99.90;;;;;;5130227;27;20929;-70
2024/01/08 09:30:56;;;;;;;10.00;5.53;;;-0.30;99.90;;;;;;5135942;27;20049;-71
2024/01/08 09:33:22;;;;;;;8.63;5.80;;;-0.30;99.90;;;;;;5135288;27;20034;-71
2024/01/08 09:35:48;;;;;;;9.50;6.00;;;-0.30;99.90;;;;;;5131453;27;20053;-71
2024/01/08 09:38:14;;;;;;;7.37;5.37;;;-0.40;99.90;;;;;;5122421;27;20094;-71
2024/01/08 09:40:43;;;;;;;7.47;5.33;;;-0.40;99.90;;;;;;5123029;27;20055;-70
2024/01/08 09:43:14;;;;;;;10.23;5.27;;;-0.40;99.90;;;;;;5135122;27;20030;-71
2024/01/08 09:45:54;;;;;;;8.20;5.27;;;-0.30;99.90;;;;;;5127787;27;20073;-71
2024/01/08 09:48:20;;;;;;;8.93;5.67;;;-0.30;99.90;;;;;;5116890;27;20046;-71
2024/01/08 09:50:46;;;;;;;7.83;5.43;;;-0.30;99.90;;;;;;5129670;27;20303;-71
2024/01/08 09:53:14;;;;;;;7.60;5.20;;;-0.30;99.90;;;;;;5124427;27;20050;-71
2024/01/08 09:55:43;;;;;;;6.67;5.40;;;-0.20;99.90;;;;;;5112998;27;20055;-71
2024/01/08 09:58:10;;;;;;;7.43;5.27;;;-0.30;99.90;;;;;;5133847;27;20043;-71
2024/01/08 10:00:36;;;;;;;8.13;5.13;;;-0.20;99.90;;;;;;5116514;27;20047;-71
2024/01/08 10:03:01;;;;;;;8.20;5.33;;;-0.20;99.90;;;;;;5125215;27;20034;-71
2024/01/08 10:05:28;;;;;;;9.33;5.07;;;-0.20;99.90;;;;;;5110222;27;20064;-70
2024/01/08 10:07:54;;;;;;;8.27;5.50;;;-0.20;99.90;;;;;;5106151;27;20577;-71
2024/01/08 10:10:22;;;;;;;8.80;5.40;;;-0.20;99.90;;;;;;5126632;27;20043;-71
2024/01/08 10:12:51;;;;;;;6.93;5.10;;;-0.10;99.90;;;;;;5114437;27;20053;-71
2024/01/08 10:15:19;;;;;;;7.17;5.40;;;-0.20;99.90;;;;;;5124893;27;20058;-71
2024/01/08 10:17:49;;;;;;;8.30;5.10;;;-0.20;99.90;;;;;;5125503;27;20043;-71
2024/01/08 10:20:15;;;;;;;8.30;5.05;;;-0.10;99.90;;;;;;5121475;27;20050;-70
2024/01/08 10:22:42;;;;;;;7.20;4.77;;;-0.10;99.90;;;;;;5126588;27;20082;-71
2024/01/08 10:25:08;;;;;;;8.33;5.10;;;0.00;99.90;;;;;;5107932;27;20512;-71
2024/01/08 10:27:34;;;;;;;7.77;5.03;;;0.00;99.90;;;;;;5129627;27;20133;-70
2024/01/08 10:30:00;;;;;;;10.27;5.67;;;0.10;99.90;;;;;;5128588;27;20031;-71
2024/01/08 10:32:31;;;;;;;8.50;4.90;;;0.20;99.90;;;;;;5130624;27;20045;-71
2024/01/08 10:34:57;;;;;;;8.20;4.97;;;0.20;99.90;;;;;;5127443;27;20035;-71
2024/01/08 10:37:24;;;;;;;7.23;5.20;;;0.20;99.90;;;;;;5117501;27;20458;-70
2024/01/08 10:39:51;;;;;;;8.43;4.80;;;0.10;99.90;;;;;;5125175;27;20432;-74
2024/01/08 10:42:17;;;;;;;8.23;4.97;;;0.20;99.90;;;;;;5114601;27;20059;-74
2024/01/08 10:44:43;;;;;;;7.93;4.70;;;0.10;99.90;;;;;;5129819;27;20054;-74
2024/01/08 10:47:10;;;;;;;8.43;4.70;;;0.20;99.90;;;;;;5131887;27;20519;-74
2024/01/08 10:49:36;;;;;;;6.73;4.60;;;0.20;99.90;;;;;;5102493;27;20385;-74
2024/01/08 10:52:16;;;;;;;7.37;4.73;;;0.20;99.90;;;;;;5123624;27;20042;-74
2024/01/08 10:54:53;;;;;;;7.63;5.05;;;0.10;99.90;;;;;;5140690;27;20050;-74
2024/01/08 10:57:28;;;;;;;7.27;4.57;;;0.20;99.90;;;;;;5125639;27;20039;-75
2024/01/08 10:59:56;;;;;;;7.03;4.57;;;0.20;99.90;;;;;;5134204;27;20070;-74
2024/01/08 11:02:22;;;;;;;8.47;5.20;;;0.20;99.90;;;;;;5107312;27;20046;-71
2024/01/08 11:04:48;;;;;;;6.53;4.57;;;0.20;99.90;;;;;;5104528;27;20047;-71
2024/01/08 11:07:15;;;;;;;6.77;4.40;;;0.30;99.90;;;;;;5129531;27;20515;-71
2024/01/08 11:09:41;;;;;;;8.35;4.90;;;0.30;99.90;;;;;;5133571;27;20670;-71
2024/01/08 11:12:11;;;;;;;6.87;4.83;;;0.30;99.90;;;;;;5131264;27;20073;-70
2024/01/08 11:14:40;;;;;;;8.53;5.03;;;0.30;99.90;;;;;;5115343;27;20405;-71
2024/01/08 11:17:09;;;;;;;7.40;5.00;;;0.30;99.90;;;;;;5133430;27;20360;-70
2024/01/08 11:19:45;;;;;;;6.22;4.35;;;0.30;99.90;;;;;;5131004;27;20398;-70
2024/01/08 11:22:12;;;;;;;7.77;4.97;;;0.30;99.90;;;;;;5122146;27;20446;-71
2024/01/08 11:24:41;;;;;;;6.97;4.40;;;0.30;99.90;;;;;;5121902;27;20401;-70
2024/01/08 11:27:07;;;;;;;5.60;3.90;;;0.30;99.90;;;;;;5124769;27;20027;-71
2024/01/08 11:29:34;;;;;;;6.53;4.20;;;0.40;99.90;;;;;;5125781;27;20094;-70
2024/01/08 11:32:18;;;;;;;6.50;4.17;;;0.60;99.90;;;;;;5109894;27;20095;-70
2024/01/08 11:34:56;;;;;;;5.97;3.87;;;0.50;99.90;;;;;;5131057;27;20046;-70
2024/01/08 11:37:39;;;;;;;5.93;4.17;;;0.50;99.90;;;;;;5131347;27;20094;-74
2024/01/08 11:40:16;;;;;;;8.30;4.57;;;0.50;99.90;;;;;;5119118;27;20047;-74
2024/01/08 11:42:47;;;;;;;6.23;4.67;;;0.40;99.90;;;;;;5111063;27;20039;-73
2024/01/08 11:45:13;;;;;;;;;;;0.40;99.90;;;;;;5131492;27;20504;-74
2024/01/08 11:47:39;;;;;;;7.13;4.57;;;0.50;99.90;;;;;;5115544;27;19948;-73
2024/01/08 11:50:08;;;;;;;7.90;4.37;;;0.60;99.90;;;;;;5110401;27;20047;-73
2024/01/08 11:52:37;;;;;;;7.73;4.80;;;0.60;99.90;;;;;;5129669;27;20069;-74
2024/01/08 11:55:05;;;;;;;6.10;4.47;;;0.70;99.90;;;;;;5131341;27;20031;-74
2024/01/08 11:57:31;;;;;;;6.77;3.97;;;0.70;99.90;;;;;;5141655;27;20069;-74
2024/01/08 12:00:00;;;;;;;7.13;4.50;;;0.70;99.90;;;;;;5121312;27;20090;-75
2024/01/08 12:02:29;;;;;;;6.93;4.53;;;0.80;99.90;;;;;;5112278;27;20042;-74
2024/01/08 12:04:59;;;;;;;7.13;4.50;;;0.80;99.90;;;;;;5126461;27;20968;-74
2024/01/08 12:07:27;;;;;;;7.57;4.68;;;0.60;99.90;;;;;;5120047;27;20118;-74
2024/01/08 12:09:53;;;;;;;6.60;4.70;;;0.50;99.90;;;;;;5112599;27;20091;-74
2024/01/08 12:12:20;;;;;;;12.77;5.20;;;0.60;99.90;;;;;;5129668;27;20042;-74
2024/01/08 12:14:47;;;;;;;5.77;4.40;;;0.60;99.90;;;;;;5132641;27;20146;-74
2024/01/08 12:17:15;;;;;;;5.23;4.27;;;0.60;99.90;;;;;;5128005;27;20393;-75
2024/01/08 12:19:43;;;;;;;6.70;4.50;;;0.60;99.90;;;;;;5124993;27;20141;-74
2024/01/08 12:22:13;;;;;;;6.23;4.50;;;0.60;99.90;;;;;;5119952;27;20047;-74
2024/01/08 12:24:42;;;;;;;7.17;4.97;;;0.80;99.90;;;;;;5119590;27;20050;-74
2024/01/08 12:27:09;;;;;;;5.93;4.10;;;0.80;99.90;;;;;;5123495;27;20043;-74
2024/01/08 12:29:42;;;;;;;5.20;4.07;;;0.80;99.90;;;;;;5128684;27;20069;-74
2024/01/08 12:32:10;;;;;;;6.57;4.63;;;0.80;99.90;;;;;;5127967;27;20030;-74
2024/01/08 12:34:42;;;;;;;6.13;4.37;;;0.70;99.90;;;;;;5113786;27;20173;-74
2024/01/08 12:37:10;;;;;;;6.63;4.70;;;0.60;99.90;;;;;;5132838;27;20054;-73
2024/01/08 12:39:36;;;;;;;6.30;4.30;;;0.60;99.90;;;;;;5128061;27;20132;-74
2024/01/08 12:42:10;;;;;;;5.80;4.27;;;0.60;99.90;;;;;;5124588;27;20047;-75